Time;durP1;ratioP1;P1;durP2;ratioP2;P2;SDS_P1;SDS_P2;PMS_P1;PMS_P2;Temp;Humidity;BMP_temperature;BMP_pressure;BME280_temperature;BME280_humidity;BME280_pressure;Samples;Min_cycle;Max_cycle;Signal;HPM_P1;HPM_P2
2022/07/31 00:00:26;;;;;;;5.85;5.25;;;;;;;29.54;40.23;100809.97;143724;605;47006;-83
2022/07/31 00:02:54;;;;;;;9.73;4.75;;;;;;;29.56;40.59;100813.22;143729;575;45925;-84
2022/07/31 00:05:21;;;;;;;7.80;5.40;;;;;;;29.56;40.40;100809.63;143726;610;47006;-84
2022/07/31 00:07:48;;;;;;;6.35;5.03;;;;;;;29.57;40.44;100816.78;143728;634;46010;-84
2022/07/31 00:10:15;;;;;;;8.05;4.72;;;;;;;29.55;40.30;100811.59;143726;628;46006;-83
2022/07/31 00:12:42;;;;;;;5.95;5.37;;;;;;;29.54;40.74;100809.13;143728;588;45925;-83
2022/07/31 00:15:11;;;;;;;8.05;4.90;;;;;;;29.49;40.87;100810.94;143731;614;46005;-84
2022/07/31 00:17:42;;;;;;;5.68;5.15;;;;;;;29.49;41.19;100823.97;143729;588;45928;-84
2022/07/31 00:20:14;;;;;;;6.10;5.07;;;;;;;29.44;40.87;100813.03;143730;584;45014;-85
2022/07/31 00:22:42;;;;;;;5.90;4.87;;;;;;;29.40;41.41;100806.53;143726;619;47008;-84
2022/07/31 00:25:11;;;;;;;7.20;5.72;;;;;;;29.39;41.09;100816.78;143726;584;50004;-82
2022/07/31 00:27:38;;;;;;;8.00;5.43;;;;;;;29.39;41.10;100811.25;143722;616;47010;-84
2022/07/31 00:30:06;;;;;;;5.95;5.10;;;;;;;29.42;40.41;100815.31;143721;573;47006;-83
2022/07/31 00:32:34;;;;;;;7.65;4.75;;;;;;;29.36;40.31;100809.13;143720;574;49925;-84
2022/07/31 00:35:00;;;;;;;8.45;4.70;;;;;;;29.37;40.27;100816.31;143733;592;45012;-84
2022/07/31 00:37:27;;;;;;;6.93;5.15;;;;;;;29.39;40.35;100811.25;143729;667;45927;-83
2022/07/31 00:39:54;;;;;;;6.20;4.65;;;;;;;29.37;40.27;100810.75;143729;573;45931;-84
2022/07/31 00:42:23;;;;;;;8.30;5.00;;;;;;;29.39;40.34;100807.69;143729;568;45925;-83
2022/07/31 00:44:51;;;;;;;9.15;5.57;;;;;;;29.38;40.52;100803.31;143731;573;46006;-82
2022/07/31 00:47:18;;;;;;;7.62;4.97;;;;;;;29.36;40.66;100803.59;143727;598;47013;-85
2022/07/31 00:49:45;;;;;;;6.87;5.10;;;;;;;29.32;40.53;100808.12;143725;585;47006;-84
2022/07/31 00:52:12;;;;;;;8.43;5.47;;;;;;;29.30;40.75;100805.69;143727;588;47008;-84
2022/07/31 00:54:39;;;;;;;7.45;4.68;;;;;;;29.29;40.54;100806.81;143728;636;47007;-83
2022/07/31 00:57:06;;;;;;;5.85;5.05;;;;;;;29.29;39.93;100814.31;143728;586;46012;-85
2022/07/31 00:59:34;;;;;;;5.65;5.15;;;;;;;29.27;39.67;100817.41;143730;573;46004;-83
2022/07/31 01:02:01;;;;;;;7.10;4.85;;;;;;;29.23;39.46;100813.66;143725;585;46009;-84
2022/07/31 01:04:28;;;;;;;6.70;5.15;;;;;;;29.21;39.70;100815.94;143728;620;47006;-84
2022/07/31 01:06:55;;;;;;;7.85;5.18;;;;;;;29.22;39.38;100814.78;143729;575;46010;-83
2022/07/31 01:09:22;;;;;;;4.95;4.30;;;;;;;29.23;39.42;100823.91;143729;589;46004;-84
2022/07/31 01:12:29;;;;;;;5.87;4.47;;;;;;;29.22;39.21;100822.28;143730;586;45925;-84
2022/07/31 01:14:59;;;;;;;7.60;5.20;;;;;;;29.18;39.30;100820.16;143730;587;47006;-84
2022/07/31 01:17:29;;;;;;;7.95;4.62;;;;;;;29.17;39.50;100806.66;143729;588;46010;-82
2022/07/31 01:19:57;;;;;;;6.93;4.60;;;;;;;29.16;39.17;100799.50;143731;704;45014;-82
2022/07/31 01:22:51;;;;;;;5.15;4.40;;;;;;;29.19;38.97;100804.38;143728;658;45926;-83
2022/07/31 01:26:15;;;;;;;5.20;4.70;;;;;;;29.20;39.33;100804.06;143757;574;47021;-84
2022/07/31 01:29:08;;;;;;;5.00;4.37;;;;;;;29.18;39.45;100800.78;143757;594;45927;-83
2022/07/31 01:31:44;;;;;;;5.80;4.85;;;;;;;29.17;40.06;100801.94;143756;629;45006;-83
2022/07/31 01:34:50;;;;;;;8.68;5.60;;;;;;;29.19;39.84;100805.19;143755;576;45925;-84
2022/07/31 01:37:23;;;;;;;7.15;4.85;;;;;;;29.21;39.87;100810.41;143759;582;46005;-84
2022/07/31 01:40:00;;;;;;;8.90;5.37;;;;;;;29.23;39.54;100808.12;143756;575;45927;-85
2022/07/31 01:42:28;;;;;;;7.70;4.70;;;;;;;29.23;38.07;100813.66;143732;566;47006;-85
2022/07/31 01:45:00;;;;;;;7.03;5.18;;;;;;;29.28;37.91;100802.44;143734;592;46925;-84
2022/07/31 01:47:28;;;;;;;6.15;5.40;;;;;;;29.31;37.38;100804.56;143732;658;49006;-85
2022/07/31 01:49:57;;;;;;;5.22;4.70;;;;;;;29.36;37.55;100800.84;143736;588;46012;-84
2022/07/31 01:52:28;;;;;;;5.70;4.90;;;;;;;29.37;37.35;100802.47;143734;580;47006;-83
2022/07/31 01:54:57;;;;;;;5.50;4.80;;;;;;;29.35;38.04;100810.28;143735;681;46008;-83
2022/07/31 01:57:27;;;;;;;5.10;4.57;;;;;;;29.34;37.61;100809.44;143740;577;45012;-84
2022/07/31 02:00:00;;;;;;;4.95;4.55;;;;;;;29.33;36.79;100824.41;143734;584;46011;-86
2022/07/31 02:02:29;;;;;;;5.10;4.70;;;;;;;29.31;37.45;100826.69;143734;582;47004;-83
2022/07/31 02:04:57;;;;;;;6.43;4.95;;;;;;;29.30;37.24;100825.06;143733;579;46008;-83
2022/07/31 02:07:24;;;;;;;7.05;4.87;;;;;;;29.27;37.67;100827.66;143739;623;46002;-85
2022/07/31 02:09:53;;;;;;;7.53;5.10;;;;;;;29.21;38.38;100818.72;143736;592;46010;-83
2022/07/31 02:12:21;;;;;;;6.07;4.60;;;;;;;29.21;36.81;100810.41;143731;567;47006;-82
2022/07/31 02:14:49;;;;;;;5.05;4.55;;;;;;;29.23;37.22;100810.88;143736;584;45925;-83
2022/07/31 02:17:18;;;;;;;6.18;4.97;;;;;;;29.22;37.76;100816.75;143736;600;46012;-83
2022/07/31 02:19:46;;;;;;;5.30;4.80;;;;;;;29.22;37.86;100809.25;143736;644;46031;-83
2022/07/31 02:22:14;;;;;;;6.05;5.55;;;;;;;29.24;37.48;100812.50;143735;567;46006;-83
2022/07/31 02:24:41;;;;;;;5.95;5.07;;;;;;;29.25;37.90;100800.31;143735;600;46008;-85
2022/07/31 02:27:11;;;;;;;5.62;5.15;;;;;;;29.23;37.70;100808.12;143738;590;47002;-84
2022/07/31 02:29:39;;;;;;;6.05;5.45;;;;;;;29.24;38.27;100803.41;143738;573;45927;-83
2022/07/31 02:32:07;;;;;;;6.10;5.50;;;;;;;29.28;37.94;100809.94;143739;578;45014;-84
2022/07/31 02:34:36;;;;;;;5.05;4.55;;;;;;;29.28;37.99;100802.44;143736;636;46008;-84
2022/07/31 02:37:04;;;;;;;6.78;5.20;;;;;;;29.26;37.94;100803.91;143739;586;46002;-83
2022/07/31 02:39:33;;;;;;;7.68;5.00;;;;;;;29.27;38.37;100805.53;143736;608;46030;-85
2022/07/31 02:42:01;;;;;;;5.37;4.80;;;;;;;29.23;38.47;100810.06;143733;568;47004;-82
2022/07/31 02:44:33;;;;;;;5.87;5.28;;;;;;;29.18;38.44;100800.78;143732;630;47009;-84
2022/07/31 02:47:03;;;;;;;5.32;4.82;;;;;;;29.17;39.24;100807.47;143742;602;45012;-86
2022/07/31 02:49:34;;;;;;;8.63;5.18;;;;;;;29.14;39.51;100799.81;143736;606;46032;-86
2022/07/31 02:52:03;;;;;;;7.40;5.53;;;;;;;29.11;39.29;100814.31;143723;591;51006;-85
2022/07/31 02:54:30;;;;;;;10.50;5.05;;;;;;;29.06;40.06;100811.69;143736;597;45926;-85
2022/07/31 02:56:59;;;;;;;10.57;5.37;;;;;;;28.99;40.31;100806.63;143741;578;46004;-85
2022/07/31 02:59:25;;;;;;;8.18;4.78;;;;;;;28.97;40.15;100808.06;143737;582;45927;-86
2022/07/31 03:01:53;;;;;;;10.02;5.50;;;;;;;28.95;40.54;100802.87;143733;567;47006;-84
2022/07/31 03:04:20;;;;;;;7.30;5.97;;;;;;;28.95;40.78;100813.09;143738;631;45925;-84
2022/07/31 03:06:47;;;;;;;7.50;5.18;;;;;;;28.93;41.42;100815.41;143741;573;46002;-85
2022/07/31 03:09:15;;;;;;;7.35;5.47;;;;;;;28.90;41.23;100819.59;143738;619;45928;-85
2022/07/31 03:11:42;;;;;;;8.68;5.10;;;;;;;28.89;40.83;100812.44;143733;584;47004;-85
2022/07/31 03:14:11;;;;;;;8.15;4.90;;;;;;;28.91;40.76;100823.19;143737;568;45925;-85
2022/07/31 03:16:40;;;;;;;7.90;5.00;;;;;;;28.88;40.72;100819.09;143736;588;48002;-84
2022/07/31 03:19:08;;;;;;;13.02;6.12;;;;;;;28.87;41.25;100815.53;143735;625;46010;-84
2022/07/31 03:21:35;;;;;;;8.57;5.55;;;;;;;28.85;41.15;100812.28;143727;640;54020;-86
2022/07/31 03:24:04;;;;;;;8.32;5.30;;;;;;;28.86;40.38;100813.09;143733;614;45926;-83
2022/07/31 03:26:31;;;;;;;7.68;5.47;;;;;;;28.88;40.11;100814.41;143735;609;45012;-83
2022/07/31 03:28:59;;;;;;;8.35;5.32;;;;;;;28.93;40.06;100815.41;143731;609;45927;-86
2022/07/31 03:31:26;;;;;;;10.48;5.37;;;;;;;28.95;39.85;100818.62;143731;585;46004;-84
2022/07/31 03:33:53;;;;;;;7.55;5.03;;;;;;;28.93;39.74;100813.44;143727;584;47008;-84
2022/07/31 03:36:21;;;;;;;6.00;5.35;;;;;;;28.98;39.59;100815.22;143732;597;46005;-85
2022/07/31 03:38:48;;;;;;;7.57;5.82;;;;;;;29.04;39.50;100808.41;143724;588;47013;-86
2022/07/31 03:41:15;;;;;;;6.35;5.32;;;;;;;29.05;39.65;100816.37;143730;568;46016;-85
2022/07/31 03:43:44;;;;;;;11.77;5.43;;;;;;;29.05;39.44;100815.59;143724;661;47008;-86
2022/07/31 03:46:13;;;;;;;6.57;5.07;;;;;;;29.01;39.15;100820.13;143730;567;47007;-84
2022/07/31 03:48:40;;;;;;;11.70;5.65;;;;;;;29.02;39.40;100822.59;143730;567;45927;-86
2022/07/31 03:51:07;;;;;;;9.80;5.18;;;;;;;29.08;39.78;100822.41;143732;590;45015;-85
2022/07/31 03:53:35;;;;;;;9.18;4.70;;;;;;;29.08;40.80;100820.47;143731;590;45925;-83
2022/07/31 03:56:04;;;;;;;10.55;5.10;;;;;;;29.04;40.49;100817.50;143734;580;45012;-85
2022/07/31 03:58:31;;;;;;;7.78;5.28;;;;;;;29.03;40.79;100828.91;143728;591;46030;-84
2022/07/31 04:00:59;;;;;;;10.68;5.82;;;;;;;28.96;41.25;100825.78;143732;651;45014;-83
2022/07/31 04:03:31;;;;;;;9.77;6.03;;;;;;;28.87;41.22;100826.59;143728;566;46008;-85
2022/07/31 04:05:59;;;;;;;17.58;6.80;;;;;;;28.88;41.71;100833.75;143728;653;48002;-84
2022/07/31 04:08:26;;;;;;;10.68;6.43;;;;;;;28.91;41.64;100842.56;143729;585;46010;-84
2022/07/31 04:10:54;;;;;;;11.07;6.07;;;;;;;28.91;41.55;100839.78;143726;606;46010;-85
2022/07/31 04:13:20;;;;;;;9.55;6.55;;;;;;;28.88;41.56;100844.81;143729;574;45925;-84
2022/07/31 04:15:47;;;;;;;8.27;6.03;;;;;;;28.92;41.71;100842.22;143731;578;47004;-84
2022/07/31 04:18:15;;;;;;;13.88;5.60;;;;;;;28.94;42.05;100848.25;143731;607;45927;-86
2022/07/31 04:20:41;;;;;;;10.38;6.03;;;;;;;28.95;41.62;100846.28;143731;594;46004;-85
2022/07/31 04:23:08;;;;;;;12.20;6.15;;;;;;;28.94;41.87;100845.47;143729;574;46022;-83
2022/07/31 04:25:36;;;;;;;8.10;6.68;;;;;;;28.95;41.90;100844.34;143732;604;46004;-83
2022/07/31 04:28:03;;;;;;;10.70;5.75;;;;;;;28.93;41.69;100863.19;143730;572;46010;-84
2022/07/31 04:30:30;;;;;;;10.18;5.82;;;;;;;28.95;41.26;100849.03;143732;623;45014;-83
2022/07/31 04:32:58;;;;;;;10.30;5.37;;;;;;;28.99;41.77;100850.03;143731;608;45925;-86
2022/07/31 04:35:25;;;;;;;12.15;6.72;;;;;;;29.02;41.82;100847.47;143733;567;46002;-84
2022/07/31 04:37:52;;;;;;;9.68;5.12;;;;;;;29.08;41.90;100856.41;143730;602;46013;-84
2022/07/31 04:40:19;;;;;;;8.38;5.07;;;;;;;29.11;41.36;100855.78;143731;596;45931;-84
2022/07/31 04:42:46;;;;;;;7.25;5.12;;;;;;;29.14;41.43;100857.87;143731;594;45925;-84
2022/07/31 04:45:13;;;;;;;7.60;4.80;;;;;;;29.16;40.75;100852.84;143732;648;46017;-83
2022/07/31 04:47:40;;;;;;;5.30;4.80;;;;;;;29.20;41.16;100850.28;143722;686;50925;-84
2022/07/31 04:50:08;;;;;;;7.07;4.97;;;;;;;29.23;40.63;100852.38;143731;574;47002;-84
2022/07/31 04:52:35;;;;;;;5.62;4.90;;;;;;;29.25;41.05;100860.37;143732;585;45924;-85
2022/07/31 04:55:03;;;;;;;9.45;4.97;;;;;;;29.28;41.01;100852.22;143730;713;47004;-84
2022/07/31 04:57:30;;;;;;;9.20;4.75;;;;;;;29.34;41.35;100862.00;143730;643;46008;-85
2022/07/31 04:59:57;;;;;;;8.85;4.70;;;;;;;29.40;42.16;100857.16;143721;589;51008;-84
2022/07/31 05:02:24;;;;;;;6.28;4.65;;;;;;;29.45;41.37;100851.47;143730;615;46002;-84
2022/07/31 05:04:50;;;;;;;9.32;5.30;;;;;;;29.46;41.33;100849.50;143730;583;46002;-84
2022/07/31 05:07:17;;;;;;;10.65;5.32;;;;;;;29.51;41.68;100849.34;143731;596;45921;-84
2022/07/31 05:09:44;;;;;;;8.20;5.28;;;;;;;29.55;41.65;100850.34;143729;585;46925;-84
2022/07/31 05:12:11;;;;;;;9.23;5.32;;;;;;;29.55;41.97;100855.88;143731;660;45923;-85
2022/07/31 05:14:38;;;;;;;9.80;4.65;;;;;;;29.55;40.50;100850.34;143734;577;45008;-84
2022/07/31 05:17:05;;;;;;;7.95;5.32;;;;;;;29.60;39.81;100855.69;143729;593;47010;-82
2022/07/31 05:19:33;;;;;;;7.03;5.50;;;;;;;29.65;40.53;100854.75;143731;592;45925;-83
2022/07/31 05:22:00;;;;;;;8.98;5.35;;;;;;;29.67;39.69;100849.66;143730;598;45924;-84
2022/07/31 05:24:27;;;;;;;9.02;5.50;;;;;;;29.70;39.60;100843.50;143734;659;45008;-85
2022/07/31 05:26:53;;;;;;;9.15;5.45;;;;;;;29.75;39.32;100848.88;143730;604;46010;-84
2022/07/31 05:29:20;;;;;;;10.60;6.35;;;;;;;29.81;38.58;100849.50;143730;660;46002;-84
2022/07/31 05:31:47;;;;;;;9.70;6.30;;;;;;;29.89;38.44;100845.09;143731;573;45923;-85
2022/07/31 05:34:15;;;;;;;9.25;6.37;;;;;;;29.91;38.26;100848.38;143727;615;47002;-84
2022/07/31 05:36:42;;;;;;;10.32;6.43;;;;;;;29.97;38.78;100849.03;143730;605;45921;-84
2022/07/31 05:39:09;;;;;;;8.43;5.97;;;;;;;30.02;38.19;100854.41;143726;578;47004;-86
2022/07/31 05:41:37;;;;;;;7.50;5.50;;;;;;;30.05;38.30;100857.34;143729;598;46000;-86
2022/07/31 05:44:04;;;;;;;8.70;6.18;;;;;;;30.07;38.12;100855.06;143731;652;47000;-83
2022/07/31 05:46:31;;;;;;;7.82;6.35;;;;;;;30.10;38.38;100871.00;143730;572;45921;-84
2022/07/31 05:48:58;;;;;;;9.77;6.28;;;;;;;30.16;37.84;100865.31;143730;643;46002;-84
2022/07/31 05:51:26;;;;;;;6.80;6.10;;;;;;;30.22;38.65;100870.34;143731;567;45923;-83
2022/07/31 05:53:53;;;;;;;14.90;6.87;;;;;;;30.27;37.92;100861.03;143724;579;48000;-83
2022/07/31 05:56:20;;;;;;;10.48;6.43;;;;;;;30.32;38.99;100855.34;143731;579;45921;-83
2022/07/31 05:58:47;;;;;;;9.27;5.97;;;;;;;30.35;38.33;100863.00;143731;575;45925;-86
2022/07/31 06:01:14;;;;;;;8.10;5.60;;;;;;;30.39;39.07;100858.38;143731;567;45922;-84
2022/07/31 06:03:41;;;;;;;11.82;5.93;;;;;;;30.45;38.07;100861.00;143724;592;49002;-84
2022/07/31 06:06:08;;;;;;;11.73;6.62;;;;;;;30.49;38.15;100864.75;143730;581;46010;-84
2022/07/31 06:08:35;;;;;;;10.98;6.35;;;;;;;30.52;38.00;100862.09;143723;605;47004;-85
2022/07/31 06:11:02;;;;;;;7.90;6.47;;;;;;;30.54;37.73;100853.44;143730;568;46006;-83
2022/07/31 06:13:29;;;;;;;9.80;5.90;;;;;;;30.58;38.07;100857.22;143733;608;46004;-83
2022/07/31 06:15:58;;;;;;;11.00;6.00;;;;;;;30.62;38.20;100857.37;143724;592;47010;-85
2022/07/31 06:18:25;;;;;;;11.27;6.35;;;;;;;30.63;38.55;100851.50;143728;725;46004;-84
2022/07/31 06:20:53;;;;;;;11.35;5.50;;;;;;;30.58;39.34;100850.87;143725;590;47004;-84
2022/07/31 06:23:20;;;;;;;6.45;5.43;;;;;;;30.61;39.65;100841.91;143733;576;46000;-83
2022/07/31 06:25:47;;;;;;;14.70;5.62;;;;;;;30.72;39.70;100853.41;143725;600;47026;-85
2022/07/31 06:28:14;;;;;;;8.93;5.10;;;;;;;30.80;39.69;100842.28;143721;598;49004;-84
2022/07/31 06:30:41;;;;;;;8.15;5.40;;;;;;;30.88;39.60;100846.19;143727;600;47006;-82
2022/07/31 06:33:08;;;;;;;8.10;4.75;;;;;;;30.86;39.47;100842.94;143729;609;47002;-83
2022/07/31 06:35:35;;;;;;;8.25;4.93;;;;;;;30.82;39.63;100844.72;143727;574;47009;-84
2022/07/31 06:38:02;;;;;;;9.70;4.95;;;;;;;30.84;40.09;100834.91;143731;601;45926;-84
2022/07/31 06:40:29;;;;;;;8.55;4.68;;;;;;;30.89;39.72;100841.44;143712;599;56004;-85
2022/07/31 06:42:57;;;;;;;9.65;4.50;;;;;;;30.96;39.66;100841.72;143725;685;47004;-85
2022/07/31 06:45:24;;;;;;;10.75;4.32;;;;;;;30.92;38.93;100836.03;143728;590;47008;-85
2022/07/31 06:47:51;;;;;;;4.57;3.80;;;;;;;30.87;38.58;100838.19;143732;630;45010;-84
2022/07/31 06:50:18;;;;;;;6.07;4.25;;;;;;;30.93;38.62;100829.31;143731;582;45923;-82
2022/07/31 06:52:45;;;;;;;5.30;4.03;;;;;;;31.05;38.78;100822.25;143734;635;45008;-82
2022/07/31 06:55:12;;;;;;;6.32;4.70;;;;;;;31.09;40.11;100824.03;143730;572;46006;-83
2022/07/31 06:57:39;;;;;;;5.03;4.50;;;;;;;31.06;40.36;100830.25;143730;611;46002;-83
2022/07/31 07:00:06;;;;;;;7.45;4.60;;;;;;;31.02;40.58;100828.47;143731;606;45924;-83
2022/07/31 07:02:33;;;;;;;7.82;5.03;;;;;;;30.92;40.86;100819.38;143732;668;46004;-82
2022/07/31 07:05:00;;;;;;;6.20;4.60;;;;;;;31.00;40.98;100832.41;143728;580;47010;-85
2022/07/31 07:07:27;;;;;;;5.65;3.90;;;;;;;31.07;40.24;100826.31;143729;591;47002;-83
2022/07/31 07:09:54;;;;;;;6.47;4.43;;;;;;;30.99;40.14;100828.00;143729;573;46006;-84
2022/07/31 07:12:21;;;;;;;6.85;4.25;;;;;;;31.00;40.54;100824.06;143731;573;47000;-83
2022/07/31 07:14:49;;;;;;;5.45;4.25;;;;;;;31.00;39.77;100826.84;143728;595;46011;-83
2022/07/31 07:17:16;;;;;;;4.87;3.72;;;;;;;31.07;38.26;100819.94;143728;576;47002;-83
2022/07/31 07:19:43;;;;;;;5.82;3.58;;;;;;;31.07;37.96;100828.25;143725;628;46009;-83
2022/07/31 07:22:11;;;;;;;5.35;3.90;;;;;;;31.02;37.85;100829.28;143730;584;47004;-85
2022/07/31 07:24:38;;;;;;;6.18;4.87;;;;;;;31.12;37.79;100825.31;143727;568;46010;-83
2022/07/31 07:27:06;;;;;;;4.72;3.80;;;;;;;31.18;37.30;100823.16;143721;589;47006;-84
2022/07/31 07:29:33;;;;;;;5.07;3.95;;;;;;;31.26;37.49;100822.31;143728;579;46008;-84
2022/07/31 07:32:00;;;;;;;7.85;4.00;;;;;;;31.34;37.38;100828.94;143731;594;46002;-82
2022/07/31 07:34:28;;;;;;;4.25;3.65;;;;;;;31.38;36.91;100829.91;143726;586;47012;-81
2022/07/31 07:36:55;;;;;;;9.90;4.12;;;;;;;31.37;36.82;100829.06;143729;618;46004;-86
2022/07/31 07:39:22;;;;;;;6.30;3.90;;;;;;;31.36;36.35;100830.22;143727;584;46008;-85
2022/07/31 07:41:49;;;;;;;5.87;3.85;;;;;;;31.41;36.11;100835.56;143731;618;46006;-83
2022/07/31 07:44:15;;;;;;;6.25;3.72;;;;;;;31.48;36.18;100825.91;143722;649;45928;-81
2022/07/31 07:46:42;;;;;;;5.80;3.65;;;;;;;31.61;35.89;100827.56;143718;569;48027;-83
2022/07/31 07:49:09;;;;;;;8.43;4.00;;;;;;;31.73;35.69;100824.06;143726;591;46018;-83
2022/07/31 07:51:36;;;;;;;4.20;3.90;;;;;;;31.75;35.50;100825.34;143727;618;48006;-85
2022/07/31 07:54:04;;;;;;;5.75;4.70;;;;;;;31.81;35.65;100814.84;143728;595;46012;-86
2022/07/31 07:56:31;;;;;;;4.50;3.83;;;;;;;31.81;36.11;100814.84;143726;610;47004;-86
2022/07/31 07:58:57;;;;;;;4.25;3.85;;;;;;;31.88;35.57;100812.34;143723;644;47009;-84
2022/07/31 08:01:25;;;;;;;7.75;4.20;;;;;;;31.93;35.43;100807.72;143732;582;45012;-84
2022/07/31 08:03:52;;;;;;;7.78;3.72;;;;;;;32.01;34.60;100813.19;143724;591;46012;-84
2022/07/31 08:06:20;;;;;;;6.75;4.12;;;;;;;32.07;35.62;100816.56;143729;598;46004;-83
2022/07/31 08:08:47;;;;;;;6.87;3.78;;;;;;;32.13;34.74;100812.38;143729;573;45925;-86
2022/07/31 08:11:15;;;;;;;4.60;3.83;;;;;;;32.18;34.65;100814.16;143732;594;45013;-86
2022/07/31 08:13:42;;;;;;;4.60;3.70;;;;;;;32.21;34.76;100816.25;143729;577;45927;-83
2022/07/31 08:16:09;;;;;;;5.00;4.00;;;;;;;32.16;34.62;100817.25;143728;663;46005;-84
2022/07/31 08:18:36;;;;;;;5.75;4.78;;;;;;;32.22;36.13;100809.50;143728;606;45925;-83
2022/07/31 08:21:03;;;;;;;6.97;4.10;;;;;;;32.33;34.63;100807.94;143728;568;46008;-82
2022/07/31 08:23:31;;;;;;;6.07;4.05;;;;;;;32.28;34.79;100804.59;176751;57;97666;-82
2022/07/31 08:26:03;;;;;;;7.55;4.53;;;;;;;32.37;33.95;100810.84;143728;572;46004;-81
2022/07/31 08:28:30;;;;;;;4.30;3.90;;;;;;;32.35;33.77;100813.97;143728;602;45921;-83
2022/07/31 08:30:56;;;;;;;6.05;4.00;;;;;;;32.42;34.98;100812.56;143728;671;48002;-82
2022/07/31 08:33:24;;;;;;;6.28;4.32;;;;;;;32.46;34.85;100806.00;143722;691;50003;-83
2022/07/31 08:35:51;;;;;;;4.43;3.90;;;;;;;32.60;34.75;100807.63;143716;603;50002;-84
2022/07/31 08:38:18;;;;;;;4.80;3.70;;;;;;;32.72;34.86;100804.03;143716;589;47006;-85
2022/07/31 08:40:46;;;;;;;4.62;3.90;;;;;;;32.56;35.17;100804.72;143729;566;46002;-85
2022/07/31 08:43:13;;;;;;;6.55;4.03;;;;;;;32.52;36.75;100806.56;143727;584;46008;-86
2022/07/31 08:45:41;;;;;;;5.72;3.47;;;;;;;32.58;36.81;100805.16;143729;675;45929;-86
2022/07/31 08:48:08;;;;;;;4.25;3.75;;;;;;;32.57;36.43;100799.97;143728;569;46006;-84
2022/07/31 08:50:43;;;;;;;5.53;3.58;;;;;;;32.63;34.59;100807.72;143724;615;47002;-86
2022/07/31 08:53:14;;;;;;;6.12;4.15;;;;;;;32.61;33.90;100806.47;143708;620;54002;-85
2022/07/31 08:55:43;;;;;;;4.15;3.72;;;;;;;32.54;33.50;100809.00;143729;661;46002;-87
2022/07/31 08:58:10;;;;;;;5.85;4.20;;;;;;;32.65;34.04;100799.84;143729;588;45924;-85
2022/07/31 09:00:40;;;;;;;5.43;3.80;;;;;;;32.75;32.10;100804.13;143734;592;45010;-87
2022/07/31 09:03:07;;;;;;;5.10;3.70;;;;;;;32.87;32.48;100805.31;143729;582;46020;-85
2022/07/31 09:05:37;;;;;;;4.97;3.67;;;;;;;32.86;32.13;100804.50;143728;573;47002;-84
2022/07/31 09:08:04;;;;;;;3.55;3.10;;;;;;;32.95;31.92;100809.94;143715;576;49006;-85
2022/07/31 09:10:31;;;;;;;7.03;3.50;;;;;;;33.02;32.12;100798.22;143731;589;46002;-85
2022/07/31 09:12:59;;;;;;;4.45;3.83;;;;;;;33.10;33.59;100797.25;143725;573;47008;-86
2022/07/31 09:15:28;;;;;;;7.68;4.70;;;;;;;33.25;34.46;100799.34;143730;604;45012;-86
2022/07/31 09:17:55;;;;;;;5.90;4.03;;;;;;;33.19;34.69;100806.31;143723;581;47006;-88
2022/07/31 09:20:24;;;;;;;5.15;4.65;;;;;;;33.10;34.57;100802.81;143732;568;45010;-87
2022/07/31 09:23:10;;;;;;;5.15;3.90;;;;;;;33.15;36.08;100793.44;143729;662;45921;-85
2022/07/31 09:25:37;;;;;;;3.92;3.58;;;;;;;33.30;35.88;100791.88;143723;641;47004;-86
2022/07/31 09:28:06;;;;;;;6.82;4.10;;;;;;;33.14;34.78;100795.41;143727;654;47022;-86
2022/07/31 09:30:33;;;;;;;5.18;4.00;;;;;;;33.22;35.20;100793.63;143730;576;46002;-85
2022/07/31 09:33:14;;;;;;;4.85;4.18;;;;;;;33.28;34.89;100794.19;143724;632;48010;-85
2022/07/31 09:35:51;;;;;;;6.03;3.90;;;;;;;33.31;35.74;100785.16;143728;620;46004;-85
2022/07/31 09:38:19;;;;;;;4.20;3.58;;;;;;;33.44;35.60;100786.78;143729;642;45920;-87
2022/07/31 09:40:46;;;;;;;4.90;3.80;;;;;;;33.48;35.03;100784.09;143731;646;46004;-84
2022/07/31 09:43:18;;;;;;;4.82;4.10;;;;;;;33.29;35.85;100784.69;143724;590;47008;-86
2022/07/31 09:45:55;;;;;;;6.95;3.62;;;;;;;33.21;36.07;100780.88;143722;597;48004;-87
2022/07/31 09:48:22;;;;;;;6.25;4.00;;;;;;;32.91;37.24;100797.88;143727;576;46006;-87
2022/07/31 09:50:56;;;;;;;4.45;3.85;;;;;;;32.73;37.38;100783.41;143730;676;47004;-86
2022/07/31 09:53:23;;;;;;;4.68;3.78;;;;;;;32.85;37.39;100783.41;143730;603;45921;-87
2022/07/31 09:55:55;;;;;;;4.65;3.55;;;;;;;32.95;37.50;100782.13;143723;597;47004;-87
2022/07/31 09:58:23;;;;;;;4.95;4.12;;;;;;;32.88;37.33;100784.66;143728;608;45923;-88
2022/07/31 10:00:52;;;;;;;7.00;4.30;;;;;;;32.87;37.78;100774.69;143730;711;46006;-86
2022/07/31 10:03:19;;;;;;;4.28;3.75;;;;;;;32.95;38.15;100782.13;143729;600;46010;-86
2022/07/31 10:05:47;;;;;;;6.00;4.55;;;;;;;32.98;37.74;100764.72;143727;625;46004;-85
2022/07/31 10:08:16;;;;;;;3.95;3.60;;;;;;;32.99;38.12;100771.09;143729;575;45923;-87
2022/07/31 10:10:47;;;;;;;4.68;3.60;;;;;;;33.02;37.57;100768.41;143730;583;47003;-87
2022/07/31 10:13:18;;;;;;;5.55;3.80;;;;;;;33.08;36.95;100772.56;143723;569;47008;-87
2022/07/31 10:15:47;;;;;;;4.55;3.28;;;;;;;33.05;36.96;100772.47;143722;643;47004;-87
2022/07/31 10:18:18;;;;;;;5.37;3.70;;;;;;;33.08;37.97;100760.66;143729;604;45923;-86
2022/07/31 10:20:51;;;;;;;4.12;3.70;;;;;;;33.29;37.17;100767.97;143727;580;47005;-88
2022/07/31 10:23:21;;;;;;;4.82;3.72;;;;;;;33.44;37.01;100772.03;143729;667;45921;-87
2022/07/31 10:25:52;;;;;;;5.70;3.70;;;;;;;33.46;37.98;100764.12;143728;598;46017;-86
2022/07/31 10:28:20;;;;;;;4.47;3.78;;;;;;;33.48;37.37;100762.59;143728;621;46017;-85
2022/07/31 10:30:56;;;;;;;4.60;3.83;;;;;;;33.46;37.51;100764.94;143731;567;46004;-87
2022/07/31 10:33:27;;;;;;;4.78;3.80;;;;;;;33.56;38.10;100752.47;143729;626;45921;-87
2022/07/31 10:36:07;;;;;;;4.25;3.85;;;;;;;33.66;37.59;100754.75;143729;589;46004;-87
2022/07/31 10:39:07;;;;;;;5.28;3.78;;;;;;;33.56;37.90;100749.69;143726;588;47006;-88
2022/07/31 10:42:05;;;;;;;5.12;4.05;;;;;;;33.60;38.21;100738.66;143723;597;47004;-86
2022/07/31 10:44:57;;;;;;;4.75;3.92;;;;;;;33.50;38.72;100748.34;143728;586;46010;-87
2022/07/31 10:47:26;;;;;;;6.90;4.22;;;;;;;33.62;37.86;100737.12;143729;591;45012;-86
2022/07/31 10:49:53;;;;;;;14.35;4.45;;;;;;;33.61;38.56;100740.28;143723;668;46007;-87
2022/07/31 10:52:30;;;;;;;4.22;3.78;;;;;;;33.68;39.02;100743.25;143732;572;45010;-88
2022/07/31 10:54:59;;;;;;;6.93;4.20;;;;;;;33.78;39.75;100742.75;143726;567;47008;-87
2022/07/31 10:57:32;;;;;;;6.90;3.80;;;;;;;33.96;39.45;100736.88;143729;657;46002;-86
2022/07/31 11:00:19;;;;;;;4.90;3.85;;;;;;;34.06;38.85;100741.87;143727;598;47006;-87
2022/07/31 11:02:47;;;;;;;4.00;3.60;;;;;;;34.05;39.06;100740.25;143717;584;59006;-87
2022/07/31 11:05:19;;;;;;;3.97;3.58;;;;;;;34.04;39.19;100735.06;143723;590;47010;-87
2022/07/31 11:07:46;;;;;;;5.68;4.07;;;;;;;34.03;39.22;100727.88;143728;569;47002;-87
2022/07/31 11:10:19;;;;;;;6.47;4.87;;;;;;;33.97;39.58;100728.13;143729;614;45923;-87
2022/07/31 11:13:09;;;;;;;4.85;4.00;;;;;;;33.95;39.57;100722.09;143731;612;46005;-84
2022/07/31 11:15:36;;;;;;;5.12;3.75;;;;;;;34.00;39.87;100721.84;143729;582;45921;-84
2022/07/31 11:18:19;;;;;;;6.95;4.65;;;;;;;34.06;39.26;100719.59;143730;619;45929;-83
2022/07/31 11:20:57;;;;;;;6.35;4.22;;;;;;;34.23;38.73;100726.78;143729;693;45924;-84
2022/07/31 11:23:29;;;;;;;7.50;4.18;;;;;;;34.40;38.03;100727.56;143731;593;46002;-85
2022/07/31 11:26:02;;;;;;;4.68;3.67;;;;;;;34.26;35.64;100720.47;143730;590;45922;-86
2022/07/31 11:28:30;;;;;;;4.93;3.60;;;;;;;34.28;37.52;100723.72;143728;595;46002;-85
2022/07/31 11:31:01;;;;;;;7.75;4.00;;;;;;;34.31;37.40;100725.78;143726;582;47006;-84
2022/07/31 11:33:40;;;;;;;4.93;4.20;;;;;;;34.36;37.96;100718.31;143731;590;46002;-87